Time;durP1;ratioP1;P1;durP2;ratioP2;P2;SDS_P1;SDS_P2;PMS_P1;PMS_P2;Temp;Humidity;BMP_temperature;BMP_pressure;BME280_temperature;BME280_humidity;BME280_pressure;Samples;Min_cycle;Max_cycle;Signal;HPM_P1;HPM_P2
2023/02/15 00:01:24;;;;;;;51.65;28.77;;;;;;;0.19;100.00;101774.22;4987680;28;20145;-75
2023/02/15 00:03:49;;;;;;;56.65;31.95;;;;;;;0.83;100.00;101885.84;4986930;28;20034;-75
2023/02/15 00:06:15;;;;;;;59.42;31.33;;;;;;;1.02;100.00;101887.00;4987303;28;20041;-75
2023/02/15 00:08:41;;;;;;;57.78;29.65;;;;;;;0.89;100.00;101861.19;5001857;28;20050;-76
2023/02/15 00:11:09;;;;;;;43.53;25.50;;;;;;;-0.35;100.00;101736.31;4999841;28;20049;-75
2023/02/15 00:13:35;;;;;;;59.30;26.73;;;;;;;-0.43;100.00;101769.31;5005040;28;20407;-76
2023/02/15 00:16:03;;;;;;;49.60;26.65;;;;;;;0.46;100.00;101871.38;5006609;28;20030;-75
2023/02/15 00:18:29;;;;;;;61.40;28.60;;;;;;;0.17;100.00;101798.13;4985006;28;20057;-75
2023/02/15 00:20:55;;;;;;;65.70;28.00;;;;;;;0.15;100.00;101737.78;4987097;28;20045;-77
2023/02/15 00:23:21;;;;;;;58.45;28.52;;;;;;;0.99;100.00;101859.28;4988548;28;20038;-76
2023/02/15 00:25:46;;;;;;;62.65;27.15;;;;;;;0.42;100.00;101741.19;4990110;28;20050;-76
2023/02/15 00:28:12;;;;;;;50.33;27.83;;;;;;;1.02;100.00;101856.00;4992908;28;20340;-75
2023/02/15 00:30:37;;;;;;;58.75;27.40;;;;;;;0.29;100.00;101731.81;4990560;28;20026;-75
2023/02/15 00:33:02;;;;;;;57.13;27.98;;;;;;;1.01;100.00;101852.53;4990926;28;20502;-75
2023/02/15 00:35:28;;;;;;;44.80;27.08;;;;;;;1.29;100.00;101887.84;4988661;28;20050;-75
2023/02/15 00:37:53;;;;;;;66.07;27.88;;;;;;;0.62;100.00;101784.66;4995272;28;20564;-76
2023/02/15 00:40:19;;;;;;;66.93;29.98;;;;;;;0.80;100.00;101825.34;5001018;28;20505;-76
2023/02/15 00:42:44;;;;;;;47.47;26.38;;;;;;;0.27;100.00;101754.03;5009259;28;20025;-77
2023/02/15 00:45:10;;;;;;;47.53;29.15;;;;;;;1.02;100.00;101889.59;5004818;28;20050;-74
2023/02/15 00:47:35;;;;;;;54.45;27.67;;;;;;;0.51;100.00;101792.53;5005719;28;20420;-76
2023/02/15 00:50:02;;;;;;;51.97;31.30;;;;;;;1.12;100.00;101886.75;5008318;28;20133;-76
2023/02/15 00:52:28;;;;;;;54.65;32.17;;;;;;;1.07;100.00;101882.13;5004084;28;20054;-76
2023/02/15 00:54:53;;;;;;;53.92;29.50;;;;;;;0.96;100.00;101873.69;4996378;28;20030;-76
2023/02/15 00:57:19;;;;;;;53.53;28.80;;;;;;;-0.35;100.00;101740.56;4998778;28;20474;-76
2023/02/15 00:59:44;;;;;;;47.25;28.60;;;;;;;0.65;100.00;101891.53;5003675;28;20045;-76
2023/02/15 01:02:10;;;;;;;63.35;30.40;;;;;;;-0.09;100.00;101752.59;5004939;28;20042;-76
2023/02/15 01:04:35;;;;;;;59.58;31.58;;;;;;;0.18;100.00;101753.47;5004113;28;20057;-77
2023/02/15 01:07:03;;;;;;;53.97;28.40;;;;;;;1.13;100.00;101891.16;5007714;28;20489;-76
2023/02/15 01:09:29;;;;;;;56.03;30.48;;;;;;;0.86;100.00;101874.81;5006940;28;20049;-76
2023/02/15 01:11:54;;;;;;;47.95;29.67;;;;;;;0.70;100.00;101922.03;4986971;28;20043;-77
2023/02/15 01:14:20;;;;;;;69.45;31.63;;;;;;;0.50;100.00;101871.69;4985218;28;20109;-76
2023/02/15 01:16:45;;;;;;;65.00;36.60;;;;;;;0.02;100.00;101773.91;4984083;28;20050;-77
2023/02/15 01:19:11;;;;;;;72.05;32.63;;;;;;;0.77;100.00;101905.22;4986567;28;20475;-75
2023/02/15 01:21:36;;;;;;;63.03;32.63;;;;;;;0.06;100.00;101781.94;4981727;28;20092;-74
2023/02/15 01:24:02;;;;;;;56.10;31.80;;;;;;;-0.04;100.00;101761.53;4986842;28;20125;-75
2023/02/15 01:26:27;;;;;;;68.28;32.22;;;;;;;0.54;100.00;101858.19;4981803;28;20129;-76
2023/02/15 01:28:53;;;;;;;61.35;33.28;;;;;;;0.68;100.00;101892.66;4980704;28;20054;-77
2023/02/15 01:31:20;;;;;;;45.58;26.83;;;;;;;0.63;100.00;101904.34;4987149;28;20034;-77
2023/02/15 01:33:47;;;;;;;53.00;28.70;;;;;;;0.06;100.00;101775.91;4989816;28;20046;-75
2023/02/15 01:36:14;;;;;;;68.72;32.00;;;;;;;0.81;100.00;101899.47;4989337;28;20058;-76
2023/02/15 01:38:39;;;;;;;55.10;31.05;;;;;;;0.14;100.00;101787.59;4971481;28;20067;-75
2023/02/15 01:41:24;;;;;;;52.03;29.08;;;;;;;0.80;100.00;101927.00;4980906;28;20053;-75
2023/02/15 01:43:55;;;;;;;52.03;32.50;;;;;;;0.50;100.00;101904.38;4988477;28;20066;-77
2023/02/15 01:46:34;;;;;;;65.68;31.90;;;;;;;0.66;100.00;101906.25;4985347;28;20030;-76
2023/02/15 01:49:10;;;;;;;55.22;29.90;;;;;;;0.43;100.00;101890.16;4989055;28;20057;-76
2023/02/15 01:51:39;;;;;;;72.88;35.70;;;;;;;-0.19;100.00;101763.97;4982196;28;20041;-76
2023/02/15 01:54:29;;;;;;;72.88;33.28;;;;;;;0.53;100.00;101897.69;4986293;28;20055;-78
2023/02/15 01:56:59;;;;;;;54.78;31.13;;;;;;;-0.16;100.00;101786.53;4985311;28;20058;-75
2023/02/15 01:59:26;;;;;;;85.90;34.63;;;;;;;-0.36;100.00;101762.88;4984815;28;20046;-75
2023/02/15 02:01:54;;;;;;;65.38;33.90;;;;;;;0.51;100.00;101924.22;4989267;28;20045;-77
2023/02/15 02:04:38;;;;;;;75.65;32.28;;;;;;;0.51;100.00;101890.66;4991840;28;20061;-77
2023/02/15 02:07:06;;;;;;;59.42;33.55;;;;;;;-0.07;100.00;101769.03;4985657;28;20486;-76
2023/02/15 02:09:32;;;;;;;48.28;29.27;;;;;;;0.46;100.00;101884.31;4989628;28;20066;-77
2023/02/15 02:11:58;;;;;;;55.05;30.90;;;;;;;0.70;100.00;101908.22;4982444;28;20432;-76
2023/02/15 02:14:24;;;;;;;60.40;33.33;;;;;;;0.39;100.00;101881.31;4985271;28;20041;-75
2023/02/15 02:17:00;;;;;;;68.25;34.42;;;;;;;0.02;100.00;101853.91;4990024;28;20062;-75
2023/02/15 02:19:50;;;;;;;58.40;29.40;;;;;;;0.44;100.00;101902.28;4988740;28;20042;-76
2023/02/15 02:22:39;;;;;;;67.03;33.85;;;;;;;0.47;100.00;101922.22;5007850;28;20470;-76
2023/02/15 02:25:12;;;;;;;71.13;34.30;;;;;;;0.65;100.00;101914.78;5008454;28;20038;-74
2023/02/15 02:28:08;;;;;;;79.40;34.22;;;;;;;0.58;100.00;101910.91;5009225;28;20525;-76
2023/02/15 02:30:49;;;;;;;74.97;33.88;;;;;;;0.41;100.00;101918.47;5005096;28;20363;-77
2023/02/15 02:33:42;;;;;;;87.13;38.30;;;;;;;0.29;100.00;101920.25;4987612;28;20043;-76
2023/02/15 02:36:26;;;;;;;75.87;33.27;;;;;;;0.43;100.00;101913.41;4982224;28;20682;-76
2023/02/15 02:39:17;;;;;;;76.00;33.72;;;;;;;0.33;100.00;101890.38;4999251;28;20065;-75
2023/02/15 02:41:48;;;;;;;65.53;31.65;;;;;;;0.35;100.00;101920.66;5009686;28;20184;-77
2023/02/15 02:44:35;;;;;;;62.28;31.48;;;;;;;-0.26;100.00;101796.25;4998709;28;20046;-76
2023/02/15 02:47:10;;;;;;;67.57;34.95;;;;;;;0.44;100.00;101925.50;4987217;28;20129;-75
2023/02/15 02:49:39;;;;;;;58.55;33.25;;;;;;;-0.46;100.00;101804.34;4987748;28;20054;-75
2023/02/15 02:52:24;;;;;;;53.17;28.58;;;;;;;0.24;100.00;101939.72;4988318;28;21374;-75
2023/02/15 02:54:49;;;;;;;71.63;34.67;;;;;;;-0.46;100.00;101779.44;4989212;28;20080;-76
2023/02/15 02:57:15;;;;;;;55.85;29.50;;;;;;;0.48;100.00;101924.91;4990770;28;20050;-76
2023/02/15 02:59:45;;;;;;;69.22;32.45;;;;;;;0.44;100.00;101928.09;4996119;28;20064;-76
2023/02/15 03:02:20;;;;;;;62.67;35.30;;;;;;;-0.25;100.00;101799.72;5000988;28;20463;-76
2023/02/15 03:04:58;;;;;;;49.05;28.20;;;;;;;-0.42;100.00;101783.13;4992665;28;20125;-76
2023/02/15 03:07:28;;;;;;;74.32;30.33;;;;;;;0.09;100.00;101893.09;4983671;28;21200;-76
2023/02/15 03:09:56;;;;;;;56.85;30.20;;;;;;;0.15;100.00;101919.34;4988818;28;20038;-76
2023/02/15 03:12:29;;;;;;;52.60;31.35;;;;;;;-0.46;100.00;101788.88;4990041;28;20053;-75
2023/02/15 03:15:05;;;;;;;60.07;31.17;;;;;;;0.11;100.00;101896.69;4987049;28;20372;-75
2023/02/15 03:17:40;;;;;;;54.50;28.25;;;;;;;0.15;100.00;101914.16;4983054;28;20054;-75
2023/02/15 03:20:10;;;;;;;61.75;30.73;;;;;;;0.22;100.00;101930.06;4995358;28;20042;-75
2023/02/15 03:22:42;;;;;;;58.67;27.00;;;;;;;-0.61;100.00;101783.56;5011589;28;20057;-76
2023/02/15 03:25:18;;;;;;;62.75;32.28;;;;;;;0.10;100.00;101905.22;5006295;28;20602;-76
2023/02/15 03:27:48;;;;;;;50.47;27.80;;;;;;;0.07;100.00;101914.44;5004133;28;20053;-77
2023/02/15 03:30:19;;;;;;;49.75;28.15;;;;;;;0.05;100.00;101931.50;5002235;28;20122;-76
2023/02/15 03:32:46;;;;;;;44.67;25.77;;;;;;;-0.05;100.00;101915.44;4999780;28;20141;-76
2023/02/15 03:35:11;;;;;;;49.45;26.80;;;;;;;-0.64;100.00;101873.56;4992123;28;20520;-77
2023/02/15 03:37:48;;;;;;;51.05;29.38;;;;;;;-0.29;100.00;101924.97;4987152;28;20054;-78
2023/02/15 03:43:21;;;;;;;43.42;24.77;;;;;;;-0.03;100.00;101890.59;4989354;28;20037;-76
2023/02/15 03:45:55;;;;;;;55.97;32.05;;;;;;;-0.58;100.00;101799.25;5007458;28;20032;-76
2023/02/15 03:48:36;;;;;;;53.20;27.17;;;;;;;-0.59;100.00;101807.75;5000606;28;20042;-73
2023/02/15 03:53:54;;;;;;;51.35;27.77;;;;;;;-0.10;100.00;101941.69;4982165;28;20075;-74
2023/02/15 03:56:19;;;;;;;46.03;26.88;;;;;;;-0.38;100.00;101853.84;4998164;28;20409;-75
2023/02/15 04:01:58;;;;;;;49.03;26.70;;;;;;;-0.54;100.00;101818.38;4981398;28;20225;-75
2023/02/15 04:04:29;;;;;;;42.60;25.95;;;;;;;-0.04;100.00;101931.81;4989555;28;20227;-77
2023/02/15 04:06:55;;;;;;;50.05;28.48;;;;;;;-0.45;100.00;101886.91;5013253;28;20056;-76
2023/02/15 04:12:05;;;;;;;60.17;28.73;;;;;;;-0.65;100.00;101813.41;5006112;28;20092;-77
2023/02/15 04:17:14;;;;;;;48.30;26.17;;;;;;;-0.96;100.00;101776.94;5002031;28;20053;-79
2023/02/15 04:25:13;;;;;;;52.33;27.15;;;;;;;-0.20;100.00;101935.03;5003258;28;20052;-76
2023/02/15 04:27:41;;;;;;;52.08;28.27;;;;;;;-1.15;100.00;101797.03;5004128;28;20033;-75
2023/02/15 04:30:08;;;;;;;46.72;26.75;;;;;;;-0.69;100.00;101899.03;5002595;28;20137;-76
2023/02/15 04:32:35;;;;;;;43.03;25.80;;;;;;;-0.36;100.00;101914.13;5003557;28;20046;-78
2023/02/15 04:35:00;;;;;;;53.28;29.02;;;;;;;-0.31;100.00;101931.69;5002964;28;20398;-79
2023/02/15 04:37:26;;;;;;;57.40;26.48;;;;;;;-0.33;100.00;101940.13;5001283;28;20081;-76
2023/02/15 04:39:52;;;;;;;48.42;28.00;;;;;;;-0.23;100.00;101937.41;4987490;28;20042;-78
2023/02/15 04:42:17;;;;;;;56.85;29.48;;;;;;;-0.02;100.00;101931.13;5002756;28;20046;-75
2023/02/15 04:44:43;;;;;;;51.50;27.80;;;;;;;-0.71;100.00;101820.72;5003869;28;20458;-76
2023/02/15 04:47:08;;;;;;;44.63;25.48;;;;;;;-0.61;100.00;101860.88;4999132;28;20188;-77
2023/02/15 04:49:33;;;;;;;68.45;30.10;;;;;;;-1.08;100.00;101774.41;5005197;28;20077;-77
2023/02/15 04:51:59;;;;;;;46.92;25.75;;;;;;;-0.86;100.00;101806.78;5000320;28;20037;-77
2023/02/15 04:54:24;;;;;;;48.08;28.17;;;;;;;-0.70;100.00;101826.78;4981794;28;20050;-77
2023/02/15 04:56:51;;;;;;;37.50;23.90;;;;;;;-0.56;100.00;101828.59;4998676;28;20088;-77
2023/02/15 04:59:16;;;;;;;48.55;33.08;;;;;;;-1.00;100.00;101785.25;5005150;28;20050;-76
2023/02/15 05:01:42;;;;;;;72.78;32.45;;;;;;;-0.35;100.00;101932.31;5003377;28;20555;-76
2023/02/15 05:04:07;;;;;;;49.35;30.10;;;;;;;-0.33;100.00;101928.16;5001736;28;20287;-76
2023/02/15 05:06:33;;;;;;;37.85;22.13;;;;;;;-0.10;100.00;101952.03;5010909;28;20036;-74
2023/02/15 05:08:59;;;;;;;41.13;25.23;;;;;;;-0.08;100.00;101973.66;5010742;28;20111;-74
2023/02/15 05:11:25;;;;;;;49.33;26.08;;;;;;;-0.87;100.00;101835.91;5009894;28;20148;-75
2023/02/15 05:13:50;;;;;;;44.17;25.17;;;;;;;0.02;100.00;101964.84;5000386;28;20123;-78
2023/02/15 05:16:16;;;;;;;48.72;25.88;;;;;;;-0.75;100.00;101885.75;5011727;28;20120;-77
2023/02/15 05:18:41;;;;;;;48.53;27.73;;;;;;;-0.37;100.00;101928.72;5009600;28;20026;-75
2023/02/15 05:21:07;;;;;;;62.28;36.05;;;;;;;-0.13;100.00;101957.88;4993040;28;20303;-75
2023/02/15 05:23:32;;;;;;;48.55;27.52;;;;;;;-0.11;100.00;101957.97;5001708;28;20042;-76
2023/02/15 05:28:42;;;;;;;40.33;25.23;;;;;;;-0.64;100.00;101884.78;5000617;28;20057;-77
2023/02/15 05:31:17;;;;;;;49.10;25.45;;;;;;;0.10;100.00;101992.09;5003739;28;20449;-75
2023/02/15 05:33:43;;;;;;;41.65;25.50;;;;;;;-0.08;100.00;101907.47;5005309;28;20038;-77
2023/02/15 05:36:09;;;;;;;48.10;28.73;;;;;;;0.12;100.00;102001.72;5006995;28;20075;-76
2023/02/15 05:38:38;;;;;;;50.88;30.23;;;;;;;-0.14;100.00;101993.88;5009420;28;20501;-79
2023/02/15 05:41:05;;;;;;;60.78;27.90;;;;;;;-0.02;100.00;101994.72;5001029;28;20060;-75
2023/02/15 05:43:31;;;;;;;47.85;27.45;;;;;;;-0.62;100.00;101889.16;4987089;28;20050;-74
2023/02/15 05:45:56;;;;;;;50.28;29.02;;;;;;;0.03;100.00;102008.84;5001038;28;20108;-75
2023/02/15 05:48:24;;;;;;;44.75;27.20;;;;;;;-0.01;100.00;101968.13;4988184;28;20054;-74
2023/02/15 05:51:04;;;;;;;55.97;28.90;;;;;;;-0.60;100.00;101860.13;4984743;28;20058;-74
2023/02/15 05:53:32;;;;;;;48.75;26.52;;;;;;;0.01;100.00;101982.03;4982383;28;20081;-75
2023/02/15 05:55:59;;;;;;;56.10;29.73;;;;;;;-0.71;100.00;101853.31;4988630;28;20069;-76
2023/02/15 05:58:33;;;;;;;43.47;26.05;;;;;;;0.29;100.00;102033.81;4988615;28;20046;-74
2023/02/15 06:00:58;;;;;;;51.72;26.92;;;;;;;0.32;100.00;101989.25;4992297;28;20053;-73
2023/02/15 06:03:25;;;;;;;57.08;29.52;;;;;;;0.63;100.00;102021.50;5005100;28;20111;-73
2023/02/15 06:05:51;;;;;;;45.35;27.30;;;;;;;-0.17;100.00;101905.97;5007163;28;20136;-75
2023/02/15 06:08:18;;;;;;;41.65;28.25;;;;;;;0.70;100.00;102027.94;5004848;28;20060;-74
2023/02/15 06:10:45;;;;;;;44.28;27.00;;;;;;;0.97;100.00;102035.72;5008750;28;20049;-74
2023/02/15 06:13:11;;;;;;;49.70;28.90;;;;;;;1.15;100.00;102043.78;5009528;28;20022;-75
2023/02/15 06:15:36;;;;;;;51.25;28.17;;;;;;;0.39;100.00;101906.25;5006389;28;20034;-75
2023/02/15 06:18:02;;;;;;;49.28;30.33;;;;;;;1.28;100.00;102054.09;4993755;28;20053;-75
2023/02/15 06:20:27;;;;;;;49.50;27.88;;;;;;;1.15;100.00;102028.28;4986018;28;20526;-75
2023/02/15 06:22:53;;;;;;;45.17;27.27;;;;;;;0.51;100.00;101919.94;4989148;28;20042;-75
2023/02/15 06:25:18;;;;;;;52.20;32.00;;;;;;;0.63;100.00;101923.34;4989034;28;20125;-76
2023/02/15 06:27:44;;;;;;;59.30;31.42;;;;;;;0.66;100.00;101903.69;4989211;28;20505;-75
2023/02/15 06:30:11;;;;;;;51.22;29.85;;;;;;;1.42;100.00;102047.22;4988781;28;20069;-77
2023/02/15 06:32:36;;;;;;;48.70;25.92;;;;;;;0.87;100.00;101907.63;4988574;28;20050;-75
2023/02/15 06:35:02;;;;;;;51.40;30.52;;;;;;;1.82;100.00;102054.88;4985568;28;20048;-75
2023/02/15 06:37:28;;;;;;;53.28;25.15;;;;;;;1.64;100.00;102059.81;4987402;28;20042;-76
2023/02/15 06:39:54;;;;;;;78.72;30.17;;;;;;;1.71;100.00;102080.13;4989555;28;20089;-74
2023/02/15 06:42:19;;;;;;;55.53;33.88;;;;;;;1.53;100.00;102024.63;4987045;28;20080;-77
2023/02/15 06:44:45;;;;;;;50.63;29.08;;;;;;;1.92;100.00;102065.03;4986942;28;20050;-76
2023/02/15 06:47:11;;;;;;;45.78;27.70;;;;;;;1.71;100.00;102025.78;4976341;28;20058;-76
2023/02/15 06:49:36;;;;;;;47.60;28.58;;;;;;;1.48;100.00;101941.56;4987250;28;20104;-74
2023/02/15 06:52:02;;;;;;;50.75;28.50;;;;;;;1.85;100.00;102001.63;4987230;28;20034;-77
2023/02/15 06:54:28;;;;;;;58.60;30.33;;;;;;;2.22;100.00;102065.09;4985589;28;20138;-77
2023/02/15 06:56:53;;;;;;;44.83;29.20;;;;;;;1.79;100.00;101984.84;4988279;28;20046;-76
2023/02/15 06:59:19;;;;;;;52.00;30.92;;;;;;;2.46;100.00;102061.38;4980880;28;20055;-75
2023/02/15 07:01:45;;;;;;;62.40;29.85;;;;;;;1.95;100.00;101948.72;4978734;28;20042;-75
2023/02/15 07:04:11;;;;;;;52.50;29.33;;;;;;;2.04;100.00;101972.56;4992018;28;20041;-75
2023/02/15 07:06:36;;;;;;;50.95;29.23;;;;;;;2.83;100.00;102096.34;4971051;28;20042;-76
2023/02/15 07:09:02;;;;;;;61.92;29.98;;;;;;;1.92;100.00;101934.69;4981666;28;20116;-75
2023/02/15 07:14:12;;;;;;;50.15;27.90;;;;;;;3.09;100.00;102100.44;4986643;28;20062;-76
2023/02/15 07:16:38;;;;;;;42.35;26.70;;;;;;;3.04;100.00;102081.13;4992708;28;20045;-75
2023/02/15 07:19:04;;;;;;;44.45;28.40;;;;;;;3.08;100.00;102093.47;5000321;28;20030;-77
2023/02/15 07:21:29;;;;;;;38.90;25.60;;;;;;;3.25;100.00;102107.41;5007203;28;20054;-76
2023/02/15 07:23:58;;;;;;;46.05;27.25;;;;;;;3.29;100.00;102106.78;5007731;28;20046;-77
2023/02/15 07:26:24;;;;;;;50.63;28.02;;;;;;;3.31;100.00;102094.78;5004700;28;20049;-76
2023/02/15 07:28:49;;;;;;;53.17;27.15;;;;;;;3.42;100.00;102101.50;5007477;28;20464;-76
2023/02/15 07:31:15;;;;;;;46.08;29.08;;;;;;;3.48;100.00;102077.56;5006638;28;20041;-77
2023/02/15 07:33:41;;;;;;;50.45;29.83;;;;;;;2.93;100.00;101987.19;5008038;28;20200;-75
2023/02/15 07:36:07;;;;;;;47.22;26.95;;;;;;;3.55;100.00;102065.00;5002756;28;20328;-76
2023/02/15 07:38:35;;;;;;;51.88;27.85;;;;;;;3.73;100.00;102108.38;4993662;28;20403;-76
2023/02/15 07:41:02;;;;;;;48.97;26.52;;;;;;;3.89;100.00;102094.53;4987361;28;20108;-76
2023/02/15 07:43:29;;;;;;;43.78;28.17;;;;;;;3.82;100.00;102085.53;4984244;28;20058;-76
2023/02/15 07:45:59;;;;;;;46.50;27.80;;;;;;;4.05;100.00;102111.81;4981920;28;20145;-76
2023/02/15 07:48:25;;;;;;;50.55;30.73;;;;;;;4.02;100.00;102109.97;4984335;28;20053;-77
2023/02/15 07:50:50;;;;;;;48.22;29.70;;;;;;;3.43;100.00;101975.22;4983138;28;20506;-76
2023/02/15 07:53:15;;;;;;;52.10;28.08;;;;;;;3.18;100.00;101968.69;4982599;28;20073;-76
2023/02/15 07:55:41;;;;;;;59.08;28.42;;;;;;;3.36;100.00;101963.63;4980597;28;20221;-76
2023/02/15 07:58:07;;;;;;;51.80;30.73;;;;;;;3.50;100.00;101954.88;4975498;28;20466;-76
2023/02/15 08:00:55;;;;;;;48.08;27.67;;;;;;;3.40;100.00;101963.00;4986817;28;20045;-74
2023/02/15 08:03:17;;;;;;;43.10;27.20;;;;;;;4.39;100.00;102094.63;4981006;28;20061;-76
2023/02/15 08:05:44;;;;;;;49.10;28.75;;;;;;;4.30;100.00;102081.13;4981910;28;20054;-75
2023/02/15 08:08:29;;;;;;;84.30;30.80;;;;;;;4.56;100.00;102099.81;4975941;28;20081;-75
2023/02/15 08:13:53;;;;;;;82.65;42.97;;;;;;;4.39;100.00;102032.25;4986983;28;20078;-76
2023/02/15 08:16:35;;;;;;;89.72;40.17;;;;;;;4.71;100.00;102074.59;4977930;28;20557;-76
2023/02/15 08:19:13;;;;;;;109.57;56.38;;;;;;;4.50;100.00;102013.72;4976150;28;20034;-77
2023/02/15 08:21:42;;;;;;;61.08;34.00;;;;;;;4.37;100.00;101984.50;5002144;28;20045;-79
2023/02/15 08:24:09;;;;;;;77.10;35.22;;;;;;;5.28;100.00;102109.50;5001811;28;20295;-76
2023/02/15 08:26:35;;;;;;;69.13;34.45;;;;;;;5.32;100.00;102115.78;4994202;28;20128;-78
2023/02/15 08:29:01;;;;;;;74.65;32.67;;;;;;;5.10;100.00;102094.72;4992292;28;20054;-76
2023/02/15 08:31:27;;;;;;;72.40;40.72;;;;;;;4.47;100.00;101965.06;4980608;28;20061;-76
2023/02/15 08:33:55;;;;;;;51.08;28.60;;;;;;;4.43;100.00;101989.13;4987162;28;20428;-74
2023/02/15 08:36:23;;;;;;;57.22;30.10;;;;;;;5.23;100.00;102089.28;4981894;28;20046;-75
2023/02/15 08:38:49;;;;;;;60.20;29.30;;;;;;;5.26;100.00;102074.72;4983480;28;20062;-78
2023/02/15 08:41:16;;;;;;;57.50;29.77;;;;;;;5.27;100.00;102099.94;4989975;28;20054;-74
2023/02/15 08:43:43;;;;;;;38.63;26.38;;;;;;;5.42;100.00;102083.28;4993084;28;20060;-74
2023/02/15 08:46:10;;;;;;;41.20;24.40;;;;;;;4.72;100.00;101964.56;4992543;28;20149;-75
2023/02/15 08:48:36;;;;;;;50.85;27.88;;;;;;;4.69;100.00;101971.34;4983576;28;20074;-75
2023/02/15 08:51:15;;;;;;;56.60;27.52;;;;;;;4.95;100.00;102020.31;4985003;28;20411;-76
2023/02/15 08:53:44;;;;;;;51.72;29.80;;;;;;;4.88;100.00;101980.94;4986887;28;20042;-76
2023/02/15 08:56:10;;;;;;;62.67;34.53;;;;;;;5.70;100.00;102098.50;4984247;28;20047;-75
2023/02/15 08:58:36;;;;;;;43.42;26.92;;;;;;;5.62;100.00;102087.72;4980380;28;20074;-75
2023/02/15 09:01:08;;;;;;;66.78;28.77;;;;;;;5.66;100.00;102087.03;4984859;28;20081;-74
2023/02/15 09:03:33;;;;;;;53.45;33.45;;;;;;;5.94;100.00;102096.16;4980197;28;20050;-75
2023/02/15 09:06:00;;;;;;;48.80;31.15;;;;;;;6.02;100.00;102099.13;4981685;28;20042;-76
2023/02/15 09:08:27;;;;;;;60.65;30.35;;;;;;;5.38;100.00;101988.50;4988879;28;20046;-74
2023/02/15 09:10:53;;;;;;;47.78;26.60;;;;;;;5.99;100.00;102076.41;4990679;28;20053;-75
2023/02/15 09:13:18;;;;;;;38.83;24.33;;;;;;;5.45;99.96;101992.28;4988431;28;20046;-77
2023/02/15 09:15:44;;;;;;;37.72;23.23;;;;;;;5.65;99.88;101995.81;4987600;28;20044;-74
2023/02/15 09:18:11;;;;;;;51.20;27.48;;;;;;;5.63;97.56;102007.88;4987497;28;20666;-77
2023/02/15 09:20:36;;;;;;;40.67;26.63;;;;;;;5.55;97.48;101965.88;4985588;28;20066;-77
2023/02/15 09:23:02;;;;;;;47.72;26.80;;;;;;;5.76;96.19;101959.84;4983342;28;20072;-76
2023/02/15 09:25:28;;;;;;;46.22;26.13;;;;;;;6.41;96.52;102073.94;4983580;28;20054;-75
2023/02/15 09:27:53;;;;;;;39.67;22.85;;;;;;;6.00;96.52;101997.44;4984395;28;20034;-75
2023/02/15 09:30:19;;;;;;;32.47;22.30;;;;;;;6.72;94.14;102102.25;4986320;28;20549;-76
2023/02/15 09:32:47;;;;;;;49.17;23.23;;;;;;;6.70;93.40;102093.47;4980118;28;20046;-77
2023/02/15 09:35:13;;;;;;;39.40;25.35;;;;;;;6.74;94.67;102056.25;4982580;28;20042;-76
2023/02/15 09:37:38;;;;;;;30.35;21.33;;;;;;;7.14;91.62;102081.41;4985539;28;20042;-76
2023/02/15 09:40:05;;;;;;;35.83;20.80;;;;;;;6.44;88.14;101968.88;4984870;28;20133;-78
2023/02/15 09:42:49;;;;;;;40.95;21.35;;;;;;;7.32;84.97;102073.41;4982017;28;20418;-76
2023/02/15 09:45:46;;;;;;;58.78;27.63;;;;;;;7.48;84.22;102090.56;4981247;28;20149;-75
2023/02/15 09:48:24;;;;;;;30.38;19.73;;;;;;;7.31;81.99;102091.63;4976967;28;20078;-75
2023/02/15 09:51:04;;;;;;;32.65;22.70;;;;;;;7.59;81.26;102073.63;4980180;28;20467;-75
2023/02/15 09:53:51;;;;;;;40.53;24.85;;;;;;;7.65;80.51;102082.50;4984781;28;20054;-76
2023/02/15 09:56:37;;;;;;;31.02;24.15;;;;;;;7.72;78.42;102074.06;4985463;28;20465;-74
2023/02/15 09:59:14;;;;;;;41.10;22.00;;;;;;;7.18;78.94;101960.59;4977767;28;20133;-74
2023/02/15 10:02:11;;;;;;;30.75;21.23;;;;;;;7.73;76.03;102076.75;4980068;28;20045;-77
2023/02/15 10:04:47;;;;;;;34.70;22.63;;;;;;;7.91;76.49;102078.28;4984957;28;20050;-75
2023/02/15 10:07:49;;;;;;;39.28;21.58;;;;;;;7.96;73.80;102072.41;4977089;28;20085;-76
2023/02/15 10:10:41;;;;;;;30.60;19.35;;;;;;;8.10;72.08;102064.16;4980484;28;20046;-76
2023/02/15 10:13:34;;;;;;;27.52;19.33;;;;;;;7.98;71.04;102077.69;4981001;28;20041;-76
2023/02/15 10:16:15;;;;;;;26.73;19.07;;;;;;;7.69;70.38;102048.72;4982174;28;20061;-75
2023/02/15 10:18:53;;;;;;;35.28;19.95;;;;;;;8.04;70.57;102080.53;4987089;28;20395;-76
2023/02/15 10:21:47;;;;;;;30.02;19.70;;;;;;;7.25;70.04;101959.09;4983975;28;20100;-79
2023/02/15 10:24:51;;;;;;;26.90;17.98;;;;;;;7.86;70.72;102065.03;4974784;28;20182;-75
2023/02/15 10:27:20;;;;;;;31.45;18.48;;;;;;;8.06;69.90;102068.41;4942194;28;20102;-76
2023/02/15 10:30:11;;;;;;;28.08;18.48;;;;;;;7.57;70.57;102025.63;4977360;28;20514;-77
2023/02/15 10:32:59;;;;;;;28.55;18.83;;;;;;;8.25;69.57;102046.44;4993215;28;20089;-77
2023/02/15 10:35:42;;;;;;;27.13;17.92;;;;;;;8.19;68.00;102031.44;5002870;28;20057;-77
2023/02/15 10:38:14;;;;;;;23.92;16.98;;;;;;;8.33;65.58;102047.59;4997966;28;20088;-77
2023/02/15 10:41:01;;;;;;;26.65;18.13;;;;;;;8.54;65.45;102029.16;5002200;28;20054;-77
2023/02/15 10:43:45;;;;;;;28.48;18.05;;;;;;;8.32;64.48;102055.41;5001046;28;20545;-77
2023/02/15 10:46:29;;;;;;;;;;;;;;;8.43;64.05;102047.13;4999182;28;20038;-74
2023/02/15 10:49:22;;;;;;;26.63;16.80;;;;;;;8.59;62.55;102043.31;5000521;28;19941;-77
2023/02/15 10:52:18;;;;;;;23.25;17.42;;;;;;;8.02;62.70;101902.72;4984245;28;20140;-76
2023/02/15 10:55:03;;;;;;;22.38;15.57;;;;;;;9.15;62.03;102027.69;4976879;28;20100;-76
2023/02/15 10:58:05;;;;;;;27.10;16.10;;;;;;;9.92;59.74;102020.41;4984794;28;20112;-76
2023/02/15 11:01:15;;;;;;;22.15;15.43;;;;;;;9.49;61.22;102015.66;4985550;28;20057;-79
2023/02/15 11:03:53;;;;;;;22.92;16.83;;;;;;;9.92;59.44;102019.53;4982968;28;20054;-76
2023/02/15 11:06:21;;;;;;;20.92;14.48;;;;;;;10.12;58.13;102014.84;5000598;28;20120;-77
2023/02/15 11:08:51;;;;;;;24.40;15.38;;;;;;;9.62;57.35;101901.59;5000904;28;20421;-79
2023/02/15 11:11:40;;;;;;;29.70;19.42;;;;;;;9.89;56.61;101985.38;5004266;28;20204;-78
2023/02/15 11:14:36;;;;;;;21.50;16.23;;;;;;;10.10;56.30;102009.56;5000182;28;20520;-75
2023/02/15 11:17:12;;;;;;;22.55;16.13;;;;;;;10.40;56.77;101994.66;4994043;28;20057;-76
2023/02/15 11:20:06;;;;;;;28.83;16.80;;;;;;;10.34;55.34;101867.69;4987240;28;20086;-77
2023/02/15 11:22:34;;;;;;;25.90;18.70;;;;;;;10.33;54.75;101896.53;4984296;28;20089;-77
2023/02/15 11:25:01;;;;;;;29.92;17.92;;;;;;;10.38;54.90;101891.38;4978194;28;20061;-77
2023/02/15 11:27:33;;;;;;;35.97;15.82;;;;;;;11.12;56.10;101978.03;4976675;28;20078;-79
2023/02/15 11:30:15;;;;;;;30.83;18.75;;;;;;;10.99;53.83;102001.38;4976869;28;20054;-78
2023/02/15 11:32:44;;;;;;;25.45;16.95;;;;;;;10.08;54.98;101881.84;4978619;28;20047;-77
2023/02/15 11:35:09;;;;;;;29.02;16.63;;;;;;;10.56;54.13;101889.22;4983311;28;20070;-74
2023/02/15 11:37:57;;;;;;;20.67;16.00;;;;;;;11.10;54.82;101983.25;4982706;28;20058;-77
2023/02/15 11:40:30;;;;;;;20.98;14.15;;;;;;;10.89;54.42;101980.13;4989338;28;20238;-77
2023/02/15 11:43:01;;;;;;;16.63;12.85;;;;;;;10.14;53.54;101882.91;4977924;28;20038;-78
2023/02/15 11:45:34;;;;;;;19.25;13.45;;;;;;;10.74;51.64;101938.63;4976752;28;20108;-76
2023/02/15 11:48:05;;;;;;;22.13;11.70;;;;;;;10.27;50.90;101891.94;4980762;28;20058;-77
2023/02/15 11:50:32;;;;;;;22.48;10.82;;;;;;;10.64;51.02;101971.66;4985411;28;20093;-76
2023/02/15 11:53:11;;;;;;;21.10;12.00;;;;;;;10.59;50.92;101978.53;4988187;28;20152;-78
2023/02/15 11:55:36;;;;;;;16.33;11.07;;;;;;;10.38;52.22;101976.22;4982865;28;20167;-76